createdAt,value
2022-10-26T00:01:54.176Z,36.13
2022-10-26T00:06:56.460Z,37.55
2022-10-26T00:11:58.677Z,45.47
2022-10-26T00:17:01.229Z,41.88
2022-10-26T00:22:03.573Z,41.80
2022-10-26T00:27:06.285Z,36.13
2022-10-26T00:32:08.683Z,35.75
2022-10-26T00:37:10.895Z,37.33
2022-10-26T00:42:20.397Z,41.42
2022-10-26T00:47:48.216Z,41.30
2022-10-26T00:52:55.331Z,45.60
2022-10-26T00:57:57.863Z,29.92
2022-10-26T01:03:05.337Z,42.65
2022-10-26T01:08:09.170Z,36.40
2022-10-26T01:13:13.025Z,33.17
2022-10-26T01:18:48.549Z,40.22
2022-10-26T01:24:09.993Z,35.58
2022-10-26T01:29:31.029Z,33.67
2022-10-26T01:34:43.315Z,35.97
2022-10-26T01:39:59.268Z,30.65
2022-10-26T01:45:08.484Z,31.23
2022-10-26T01:50:11.982Z,28.55
2022-10-26T01:55:32.917Z,25.08
2022-10-26T02:00:40.041Z,29.45
2022-10-26T02:06:03.741Z,27.70
2022-10-26T02:11:05.903Z,24.75
2022-10-26T02:16:23.028Z,26.67
2022-10-26T02:21:31.886Z,23.00
2022-10-26T02:26:35.075Z,23.07
2022-10-26T02:31:39.518Z,28.02
2022-10-26T02:36:45.707Z,33.47
2022-10-26T02:41:49.417Z,31.60
2022-10-26T02:46:53.604Z,38.97
2022-10-26T02:52:05.018Z,34.28
2022-10-26T02:57:15.785Z,36.72
2022-10-26T03:02:20.049Z,30.90
2022-10-26T03:07:23.975Z,29.25
2022-10-26T03:12:26.192Z,31.25
2022-10-26T03:17:28.447Z,32.65
2022-10-26T03:22:30.823Z,40.78
2022-10-26T03:27:33.125Z,36.25
2022-10-26T03:32:35.388Z,36.80
2022-10-26T03:37:37.627Z,36.05
2022-10-26T03:42:40.955Z,36.35
2022-10-26T03:47:45.424Z,44.63
2022-10-26T03:52:48.911Z,38.50
2022-10-26T03:57:51.333Z,36.53
2022-10-26T04:02:58.882Z,46.53
2022-10-26T04:08:05.285Z,38.25
2022-10-26T04:13:07.788Z,35.97
2022-10-26T04:18:13.346Z,38.88
2022-10-26T04:23:17.579Z,41.33
2022-10-26T04:28:20.151Z,50.80
2022-10-26T04:33:22.351Z,35.70
2022-10-26T04:38:24.669Z,33.95
2022-10-26T04:43:27.273Z,53.40
2022-10-26T04:48:29.767Z,47.70
2022-10-26T04:53:32.349Z,40.85
2022-10-26T04:58:34.581Z,59.38
2022-10-26T05:03:36.815Z,55.47
2022-10-26T05:08:39.011Z,56.38
2022-10-26T05:13:42.367Z,48.67
2022-10-26T05:18:44.820Z,82.57
2022-10-26T05:23:55.748Z,52.38
2022-10-26T05:28:57.995Z,46.72
2022-10-26T05:34:00.431Z,38.50
2022-10-26T05:39:02.891Z,60.28
2022-10-26T05:44:05.359Z,49.25
2022-10-26T05:49:07.556Z,62.42
2022-10-26T05:54:13.650Z,57.55
2022-10-26T05:59:17.314Z,53.35
2022-10-26T06:04:39.111Z,42.65
2022-10-26T06:09:42.370Z,45.13
2022-10-26T06:14:45.083Z,42.58
2022-10-26T06:19:59.526Z,59.25
2022-10-26T06:25:16.818Z,53.70
2022-10-26T06:30:20.877Z,54.25
2022-10-26T06:35:48.225Z,42.00
2022-10-26T06:40:53.837Z,39.45
2022-10-26T06:46:31.150Z,32.15
2022-10-26T06:51:42.190Z,42.25
2022-10-26T06:56:45.906Z,43.22
2022-10-26T07:01:48.315Z,34.38
2022-10-26T07:06:50.658Z,32.80
2022-10-26T07:11:52.905Z,38.17
2022-10-26T07:16:57.357Z,43.90
2022-10-26T07:22:00.753Z,44.03
2022-10-26T07:27:03.112Z,42.40
2022-10-26T07:32:05.625Z,44.35
2022-10-26T07:37:08.069Z,44.80
2022-10-26T07:42:10.595Z,26.73
2022-10-26T07:47:12.998Z,26.50
2022-10-26T07:52:15.222Z,34.50
2022-10-26T07:57:18.284Z,27.92
2022-10-26T08:02:21.435Z,43.42
2022-10-26T08:07:23.781Z,35.58
2022-10-26T08:12:25.991Z,29.38
2022-10-26T08:17:29.813Z,31.02
2022-10-26T08:22:32.237Z,26.90
2022-10-26T08:27:34.436Z,40.95
2022-10-26T08:32:36.611Z,33.03
2022-10-26T08:37:38.832Z,32.53
2022-10-26T08:42:47.051Z,40.25
2022-10-26T08:47:53.799Z,31.75
2022-10-26T08:53:29.867Z,36.38
2022-10-26T08:58:47.542Z,26.60
2022-10-26T09:03:50.271Z,28.55
2022-10-26T09:09:20.264Z,20.83
2022-10-26T09:14:33.381Z,25.05
2022-10-26T09:20:13.797Z,34.80
2022-10-26T09:25:21.306Z,28.35
2022-10-26T09:30:24.213Z,38.30
2022-10-26T09:35:35.136Z,32.30
2022-10-26T09:41:01.038Z,24.35
2022-10-26T09:46:03.357Z,23.90
2022-10-26T09:51:05.813Z,31.52
2022-10-26T09:56:13.472Z,26.70
2022-10-26T10:01:40.085Z,35.05
2022-10-26T10:06:46.326Z,32.83
2022-10-26T10:12:07.218Z,29.35
2022-10-26T10:17:22.111Z,18.98
2022-10-26T10:22:27.376Z,26.15
2022-10-26T10:27:31.362Z,28.13
2022-10-26T10:32:37.000Z,29.45
2022-10-26T10:37:47.375Z,30.17
2022-10-26T10:42:52.314Z,32.23
2022-10-26T10:48:02.906Z,25.40
2022-10-26T10:53:26.115Z,32.08
2022-10-26T10:58:37.888Z,28.35
2022-10-26T11:03:49.473Z,29.30
2022-10-26T11:09:08.606Z,28.33
2022-10-26T11:14:25.631Z,21.88
2022-10-26T11:19:36.553Z,24.52
2022-10-26T11:24:47.758Z,26.35
2022-10-26T11:30:04.397Z,30.67
2022-10-26T11:35:31.766Z,22.45
2022-10-26T11:41:12.715Z,27.00
2022-10-26T11:46:28.706Z,37.25
2022-10-26T11:51:31.026Z,23.50
2022-10-26T11:56:39.326Z,23.27
2022-10-26T12:01:44.688Z,18.95
2022-10-26T12:06:48.820Z,21.27
2022-10-26T12:11:59.198Z,21.48
2022-10-26T12:17:20.467Z,28.63
2022-10-26T12:22:28.323Z,24.38
2022-10-26T12:27:40.142Z,16.67
2022-10-26T12:32:43.858Z,24.30
2022-10-26T12:37:46.398Z,30.80
2022-10-26T12:42:48.594Z,20.20
2022-10-26T12:47:51.099Z,13.50
2022-10-26T12:52:57.394Z,21.48
2022-10-26T12:58:30.732Z,16.55
2022-10-26T13:03:45.121Z,22.70
2022-10-26T13:08:57.776Z,18.85
2022-10-26T13:14:09.695Z,19.73
2022-10-26T13:19:25.956Z,15.93
2022-10-26T13:24:32.237Z,20.58
2022-10-26T13:30:12.721Z,24.75
2022-10-26T13:35:16.462Z,21.40
2022-10-26T13:40:22.738Z,18.88
2022-10-26T13:45:34.975Z,18.33
2022-10-26T13:50:41.046Z,18.05
2022-10-26T13:55:55.872Z,21.60
2022-10-26T14:01:10.490Z,17.10
2022-10-26T14:06:39.929Z,19.15
2022-10-26T14:11:58.814Z,20.70
2022-10-26T14:17:02.015Z,13.52
2022-10-26T14:22:05.103Z,19.15
2022-10-26T14:27:28.707Z,18.20
2022-10-26T14:32:37.066Z,15.32
2022-10-26T14:42:59.198Z,22.00
2022-10-26T14:48:03.308Z,11.82
2022-10-26T14:53:17.579Z,17.25
2022-10-26T14:58:31.575Z,25.70
2022-10-26T15:03:33.807Z,18.58
2022-10-26T15:08:55.976Z,15.65
2022-10-26T15:13:59.753Z,15.07
2022-10-26T15:19:11.431Z,15.40
2022-10-26T15:24:33.188Z,16.75
2022-10-26T15:29:49.968Z,21.02
2022-10-26T15:35:16.576Z,16.15
2022-10-26T15:40:19.686Z,21.17
2022-10-26T15:45:28.093Z,14.15
2022-10-26T15:50:30.427Z,12.88
2022-10-26T15:55:32.821Z,16.65
2022-10-26T16:00:35.178Z,24.92
2022-10-26T16:05:37.590Z,15.57
2022-10-26T16:10:39.873Z,17.55
2022-10-26T16:15:42.674Z,21.67
2022-10-26T16:20:48.366Z,29.48
2022-10-26T16:25:50.563Z,23.90
2022-10-26T16:30:58.705Z,24.70
2022-10-26T16:36:01.544Z,32.03
2022-10-26T16:41:15.917Z,29.88
2022-10-26T16:46:22.139Z,22.48
2022-10-26T16:51:29.721Z,20.52
2022-10-26T16:56:32.003Z,31.58
2022-10-26T17:01:34.711Z,27.55
2022-10-26T17:06:36.992Z,27.92
2022-10-26T17:11:39.318Z,21.20
2022-10-26T17:16:41.539Z,15.32
2022-10-26T17:21:44.996Z,16.23
2022-10-26T17:26:47.369Z,13.88
2022-10-26T17:31:49.819Z,19.02
2022-10-26T17:36:52.640Z,20.13
2022-10-26T17:41:55.495Z,24.77
2022-10-26T17:46:58.070Z,14.05
2022-10-26T17:52:00.678Z,15.75
2022-10-26T17:57:03.480Z,14.70
2022-10-26T18:02:06.239Z,22.27
2022-10-26T18:07:09.103Z,17.20
2022-10-26T18:12:11.637Z,17.27
2022-10-26T18:17:14.337Z,20.40
2022-10-26T18:22:17.034Z,16.75
2022-10-26T18:27:20.761Z,21.20
2022-10-26T18:32:25.298Z,23.45
2022-10-26T18:37:28.443Z,25.13
2022-10-26T18:42:31.042Z,24.70
2022-10-26T18:47:34.156Z,26.02
2022-10-26T18:52:36.734Z,23.20
2022-10-26T18:57:39.428Z,19.05
2022-10-26T19:02:41.959Z,26.05
2022-10-26T19:07:44.551Z,28.42
2022-10-26T19:12:47.241Z,22.67
2022-10-26T19:17:50.282Z,24.40
2022-10-26T19:22:55.558Z,39.63
2022-10-26T19:27:58.032Z,25.10
2022-10-26T19:33:00.933Z,28.80
2022-10-26T19:38:03.236Z,41.17
2022-10-26T19:43:05.496Z,29.77
2022-10-26T19:48:08.031Z,26.38
2022-10-26T19:53:10.757Z,26.42
2022-10-26T19:58:14.179Z,34.42
2022-10-26T20:03:16.561Z,33.00
2022-10-26T20:08:20.253Z,31.98
2022-10-26T20:13:23.315Z,54.55
2022-10-26T20:18:26.319Z,49.25
2022-10-26T20:23:28.804Z,46.55
2022-10-26T20:28:31.586Z,43.08
2022-10-26T20:33:34.142Z,37.58
2022-10-26T20:38:37.343Z,27.27
2022-10-26T20:43:41.334Z,17.70
2022-10-26T20:48:44.051Z,23.35
2022-10-26T20:53:54.533Z,25.40
2022-10-26T20:58:59.004Z,33.72
2022-10-26T21:04:03.604Z,20.50
2022-10-26T21:09:06.564Z,24.70
2022-10-26T21:14:09.100Z,18.67
2022-10-26T21:19:11.560Z,35.13
2022-10-26T21:24:14.038Z,34.85
2022-10-26T21:29:16.573Z,38.28
2022-10-26T21:34:18.841Z,27.90
2022-10-26T21:39:21.218Z,31.88
2022-10-26T21:44:39.928Z,38.95
2022-10-26T21:49:43.038Z,31.80
2022-10-26T21:54:45.326Z,28.02
2022-10-26T21:59:47.757Z,27.08
2022-10-26T22:04:50.107Z,28.90
2022-10-26T22:10:07.856Z,27.73
2022-10-26T22:15:13.054Z,31.83
2022-10-26T22:20:15.294Z,33.90
2022-10-26T22:25:17.529Z,27.98
2022-10-26T22:30:19.937Z,30.92
2022-10-26T22:35:29.464Z,23.85
2022-10-26T22:40:32.376Z,31.67
2022-10-26T22:45:34.587Z,31.98
2022-10-26T22:50:38.801Z,37.08
2022-10-26T22:55:45.554Z,29.55
2022-10-26T23:00:48.137Z,25.90
2022-10-26T23:05:50.557Z,29.60
2022-10-26T23:10:52.986Z,27.20
2022-10-26T23:15:55.908Z,28.30
2022-10-26T23:20:58.285Z,27.20
2022-10-26T23:26:09.450Z,33.78
2022-10-26T23:31:23.544Z,24.73
2022-10-26T23:36:26.313Z,28.50
2022-10-26T23:41:29.367Z,31.88
2022-10-26T23:46:31.845Z,31.20
2022-10-26T23:51:34.188Z,32.72
2022-10-26T23:56:36.589Z,33.35
